createdAt,value
2023-01-31T09:21:27.347Z,16.68
2023-01-31T09:22:27.326Z,16.74
2023-01-31T09:23:27.276Z,16.57
2023-01-31T09:24:27.398Z,16.55
2023-01-31T09:25:42.363Z,16.63
2023-01-31T09:26:28.316Z,16.25
2023-01-31T09:27:27.281Z,16.22
2023-01-31T09:29:27.368Z,16.13
2023-01-31T09:30:27.357Z,16.25
2023-01-31T09:31:27.324Z,16.18
2023-01-31T09:32:27.255Z,16.36
2023-01-31T09:33:27.293Z,16.53
2023-01-31T09:34:28.543Z,16.57
2023-01-31T09:35:27.958Z,16.58
2023-01-31T09:36:27.203Z,16.53
2023-01-31T09:37:28.430Z,16.63
2023-01-31T09:38:27.222Z,16.63
2023-01-31T09:39:27.210Z,16.55
2023-01-31T09:40:27.268Z,16.68
2023-01-31T09:41:27.195Z,16.64
2023-01-31T09:42:27.351Z,16.63
2023-01-31T09:43:28.509Z,16.72
2023-01-31T09:44:27.204Z,16.63
2023-01-31T09:45:27.164Z,16.74
2023-01-31T09:46:27.169Z,16.72
2023-01-31T09:47:27.373Z,16.66
2023-01-31T09:48:28.434Z,16.63
2023-01-31T09:49:27.143Z,16.63
2023-01-31T09:50:27.194Z,16.75
2023-01-31T09:51:27.177Z,16.83
2023-01-31T09:52:27.244Z,17.04
2023-01-31T09:53:27.146Z,16.91
2023-01-31T09:54:27.128Z,17.20
2023-01-31T09:56:27.244Z,17.09
2023-01-31T09:57:27.109Z,17.18
2023-01-31T09:58:27.157Z,17.04
2023-01-31T09:59:27.211Z,17.02
2023-01-31T10:00:27.197Z,16.99
2023-01-31T10:01:27.119Z,17.04
2023-01-31T10:02:27.123Z,17.04
2023-01-31T10:03:27.217Z,16.95
2023-01-31T10:04:27.127Z,16.98
2023-01-31T10:05:27.104Z,17.01
2023-01-31T10:06:27.085Z,16.95
2023-01-31T10:07:29.397Z,16.96
2023-01-31T10:08:28.216Z,16.85
2023-01-31T10:09:27.057Z,16.88
2023-01-31T10:10:27.069Z,16.91
2023-01-31T10:11:27.238Z,16.85
2023-01-31T10:12:27.991Z,16.83
2023-01-31T10:13:27.431Z,16.88
2023-01-31T10:14:27.105Z,16.80
2023-01-31T10:15:27.216Z,16.77
2023-01-31T10:16:27.314Z,16.71
2023-01-31T10:17:28.100Z,16.66
2023-01-31T10:18:27.835Z,16.66
2023-01-31T10:19:27.080Z,16.64
2023-01-31T10:20:27.126Z,16.51
2023-01-31T10:21:26.954Z,16.53
2023-01-31T10:22:27.078Z,16.48
2023-01-31T10:23:27.008Z,16.53
2023-01-31T10:24:27.987Z,16.50
2023-01-31T10:25:27.156Z,16.44
2023-01-31T10:26:27.102Z,16.47
2023-01-31T10:27:27.183Z,16.41
2023-01-31T10:28:28.974Z,16.36
2023-01-31T10:29:26.996Z,16.44
2023-01-31T10:30:27.933Z,16.39
2023-01-31T10:31:27.130Z,16.44
2023-01-31T10:32:27.815Z,16.36
2023-01-31T10:33:27.058Z,16.39
2023-01-31T10:34:27.007Z,16.34
2023-01-31T10:35:27.037Z,16.30
2023-01-31T10:36:27.031Z,16.28
2023-01-31T10:37:27.857Z,16.26
2023-01-31T10:38:27.057Z,16.26
2023-01-31T10:39:26.952Z,16.30
2023-01-31T10:40:26.943Z,16.28
2023-01-31T10:41:27.895Z,16.27
2023-01-31T10:42:26.972Z,16.20
2023-01-31T10:43:27.739Z,16.35
2023-01-31T10:44:26.925Z,16.97
2023-01-31T10:45:26.908Z,16.91
2023-01-31T10:46:26.933Z,16.86
2023-01-31T10:47:26.998Z,16.97
2023-01-31T10:48:27.028Z,16.83
2023-01-31T10:49:26.954Z,16.67
2023-01-31T10:50:26.919Z,16.64
2023-01-31T10:51:26.966Z,16.61
2023-01-31T10:52:27.144Z,16.55
2023-01-31T10:53:27.081Z,16.55
2023-01-31T10:54:27.071Z,16.57
2023-01-31T10:55:27.152Z,16.49
2023-01-31T10:56:27.189Z,16.43
2023-01-31T10:57:27.335Z,16.22
2023-01-31T10:58:27.300Z,16.20
2023-01-31T10:59:27.557Z,16.08
2023-01-31T11:00:27.408Z,16.03
2023-01-31T11:01:27.739Z,15.89
2023-01-31T11:02:27.685Z,15.87
2023-01-31T11:03:27.620Z,15.89
2023-01-31T11:04:28.698Z,15.86
2023-01-31T11:05:27.611Z,15.91
2023-01-31T11:06:27.636Z,15.89
2023-01-31T11:07:27.573Z,15.79
2023-01-31T11:08:27.592Z,15.81
2023-01-31T11:09:27.618Z,15.77
2023-01-31T11:10:27.675Z,15.68
2023-01-31T11:11:27.670Z,15.75
2023-01-31T11:12:27.709Z,15.80
2023-01-31T13:18:27.591Z,15.77
2023-01-31T13:19:27.606Z,15.75
2023-01-31T13:20:27.674Z,15.59
2023-01-31T13:21:27.669Z,15.54
2023-01-31T13:22:27.617Z,15.46
2023-01-31T13:23:27.587Z,15.33
2023-01-31T13:24:27.596Z,15.34
2023-01-31T13:25:27.607Z,15.27
2023-01-31T13:26:27.659Z,15.25
2023-01-31T13:27:27.598Z,15.21
2023-01-31T13:28:27.613Z,15.11
2023-01-31T13:29:27.631Z,15.11
2023-01-31T13:30:27.563Z,15.08
2023-01-31T13:31:27.646Z,15.05
2023-01-31T13:32:27.590Z,14.98
2023-01-31T13:33:27.596Z,15.00
2023-01-31T13:34:27.589Z,14.99
2023-01-31T13:35:27.595Z,15.03
2023-01-31T13:36:27.570Z,14.97
2023-01-31T13:37:27.572Z,15.07
2023-01-31T13:38:27.597Z,15.08
2023-01-31T13:39:27.586Z,15.03
2023-01-31T13:40:27.586Z,15.09
2023-01-31T13:41:27.945Z,15.07
2023-01-31T13:42:27.535Z,15.09
2023-01-31T13:43:27.547Z,15.11
2023-01-31T13:44:27.624Z,15.11
2023-01-31T13:45:27.578Z,15.11
2023-01-31T13:46:27.558Z,15.11
2023-01-31T13:47:27.556Z,15.16
2023-01-31T13:48:27.595Z,15.14
2023-01-31T13:49:27.548Z,15.16
2023-01-31T13:50:27.520Z,15.21
2023-01-31T13:51:27.557Z,15.27
2023-01-31T13:52:28.419Z,15.19
2023-01-31T13:53:27.522Z,15.23
2023-01-31T13:54:27.520Z,15.30
2023-01-31T13:55:27.531Z,15.30
2023-01-31T13:56:27.520Z,15.32
2023-01-31T13:57:27.500Z,15.30
2023-01-31T13:58:27.526Z,15.30
2023-01-31T13:59:28.442Z,15.30
2023-01-31T14:00:27.516Z,15.26
2023-01-31T14:01:27.571Z,15.32
2023-01-31T14:02:27.490Z,15.30
2023-01-31T14:03:28.448Z,15.34
2023-01-31T14:04:27.484Z,15.42
2023-01-31T14:05:27.454Z,15.39
2023-01-31T14:06:27.504Z,15.35
2023-01-31T14:07:27.534Z,15.39
2023-01-31T14:08:27.608Z,15.35
2023-01-31T14:09:27.466Z,15.34
2023-01-31T14:10:27.468Z,15.31
2023-01-31T14:11:27.948Z,15.33
2023-01-31T14:12:27.481Z,15.34
2023-01-31T14:13:27.422Z,15.39
2023-01-31T14:14:27.466Z,15.36
2023-01-31T14:15:27.461Z,15.41
2023-01-31T14:16:27.478Z,15.42
2023-01-31T14:17:27.457Z,15.44
2023-01-31T14:18:27.429Z,15.41
2023-01-31T14:19:27.494Z,15.47
2023-01-31T14:20:27.960Z,15.47
2023-01-31T14:21:27.456Z,15.41
2023-01-31T14:22:27.528Z,15.43
2023-01-31T14:23:27.496Z,15.41
2023-01-31T14:24:27.973Z,15.43
2023-01-31T14:25:28.113Z,15.39
2023-01-31T14:26:27.429Z,15.43
2023-01-31T14:27:27.454Z,15.41
2023-01-31T14:28:27.445Z,15.40
2023-01-31T14:29:27.436Z,15.41
2023-01-31T14:30:27.456Z,15.34
2023-01-31T14:31:27.487Z,15.40
2023-01-31T14:32:27.626Z,15.43
2023-01-31T14:33:27.390Z,15.43
2023-01-31T14:34:28.958Z,15.42
2023-01-31T14:35:27.945Z,15.43
2023-01-31T14:36:27.349Z,15.40
2023-01-31T14:37:27.382Z,15.46
2023-01-31T14:38:27.393Z,15.45
2023-01-31T14:39:27.972Z,15.51
2023-01-31T14:40:27.385Z,15.53
2023-01-31T14:41:27.392Z,15.48
2023-01-31T14:42:27.376Z,15.54
2023-01-31T14:43:27.994Z,15.56
2023-01-31T14:44:29.354Z,15.58
2023-01-31T14:45:27.417Z,15.61
2023-01-31T14:46:27.297Z,15.56
2023-01-31T14:47:27.440Z,15.62
2023-01-31T14:48:27.503Z,15.67
2023-01-31T14:49:27.996Z,15.61
2023-01-31T14:50:28.963Z,15.66
2023-01-31T14:51:27.943Z,15.65
2023-01-31T14:52:27.492Z,15.67
2023-01-31T14:53:27.966Z,15.70
2023-01-31T14:54:27.983Z,15.67
2023-01-31T14:55:27.360Z,15.70
2023-01-31T14:56:27.435Z,15.72
2023-01-31T14:57:27.282Z,15.73
2023-01-31T14:58:27.988Z,15.78
2023-01-31T14:59:27.384Z,15.73
2023-01-31T15:00:29.990Z,15.72
2023-01-31T15:01:27.474Z,15.75
2023-01-31T15:02:27.380Z,15.79
2023-01-31T15:03:27.423Z,15.83
2023-01-31T15:04:27.359Z,15.79
2023-01-31T15:05:27.347Z,15.91
2023-01-31T15:06:27.455Z,15.79
2023-01-31T15:07:27.338Z,15.88
2023-01-31T15:08:27.267Z,15.88
2023-01-31T15:09:27.252Z,15.89
2023-01-31T15:10:27.158Z,15.94
2023-01-31T15:11:41.021Z,15.89
2023-01-31T15:12:28.125Z,15.89
2023-01-31T15:13:27.154Z,15.92
2023-01-31T15:14:34.700Z,15.88
2023-01-31T15:15:28.105Z,15.89
2023-01-31T15:16:27.143Z,15.90
2023-01-31T15:17:35.959Z,15.92
2023-01-31T15:18:28.145Z,15.95
2023-01-31T15:19:27.097Z,15.95
2023-01-31T15:20:27.973Z,16.04
2023-01-31T15:21:27.074Z,16.00
2023-01-31T15:22:27.064Z,16.02
2023-01-31T15:23:27.132Z,16.03
2023-01-31T15:24:27.039Z,16.08
2023-01-31T15:25:27.075Z,16.04
2023-01-31T15:26:27.066Z,16.08
2023-01-31T15:27:28.018Z,16.05
2023-01-31T15:28:27.097Z,16.07
2023-01-31T15:29:27.107Z,16.05
2023-01-31T15:30:27.003Z,16.11
2023-01-31T15:31:27.020Z,16.08
2023-01-31T15:32:26.977Z,16.06
2023-01-31T15:33:26.998Z,16.09
2023-01-31T15:34:27.004Z,16.11
2023-01-31T15:35:26.974Z,16.11
2023-01-31T15:36:27.645Z,16.14
2023-01-31T15:37:26.948Z,16.21
2023-01-31T15:38:26.952Z,16.21
2023-01-31T15:39:26.929Z,16.16
2023-01-31T15:40:26.933Z,16.19
2023-01-31T15:41:26.957Z,16.22
2023-01-31T15:42:27.152Z,16.21
2023-01-31T15:43:27.017Z,16.22
2023-01-31T15:44:26.905Z,16.17
2023-01-31T15:45:26.895Z,16.26
2023-01-31T15:46:26.865Z,16.24
2023-01-31T15:47:26.867Z,16.27
2023-01-31T15:48:26.879Z,16.26
2023-01-31T15:49:38.440Z,16.28
2023-01-31T15:50:27.857Z,16.27
2023-01-31T15:51:26.841Z,16.28
2023-01-31T15:52:26.809Z,16.26
2023-01-31T15:53:26.883Z,16.33
2023-01-31T15:54:26.817Z,16.28
2023-01-31T15:55:26.832Z,16.37
2023-01-31T15:56:26.816Z,16.38
2023-01-31T15:57:26.770Z,16.38
2023-01-31T15:58:26.800Z,16.36
2023-01-31T15:59:26.774Z,16.38
2023-01-31T16:00:26.747Z,16.33
2023-01-31T16:01:26.759Z,16.41
2023-01-31T16:02:26.761Z,16.40
2023-01-31T16:03:26.712Z,16.41
2023-01-31T16:04:26.731Z,16.41
2023-01-31T16:05:26.713Z,16.38
2023-01-31T16:06:26.719Z,16.44
2023-01-31T16:07:26.682Z,16.35
2023-01-31T16:08:26.659Z,16.43
2023-01-31T16:09:26.669Z,16.47
2023-01-31T16:10:26.654Z,16.44
2023-01-31T16:11:27.481Z,16.43
2023-01-31T16:12:26.626Z,16.44
2023-01-31T16:13:26.645Z,16.44
2023-01-31T16:14:26.628Z,16.47
2023-01-31T16:15:26.622Z,16.49
2023-01-31T16:16:26.617Z,16.49
2023-01-31T16:17:26.643Z,16.47
2023-01-31T16:18:26.598Z,16.46
2023-01-31T16:19:26.612Z,16.49
2023-01-31T16:20:26.647Z,16.47
2023-01-31T16:21:26.571Z,16.50
2023-01-31T16:22:26.545Z,16.50
2023-01-31T16:23:26.549Z,16.55
2023-01-31T16:24:26.552Z,16.50
2023-01-31T16:25:27.511Z,16.52
2023-01-31T16:26:26.607Z,16.55
2023-01-31T16:27:26.550Z,16.52
2023-01-31T16:28:26.514Z,16.55
2023-01-31T16:29:26.522Z,16.60
2023-01-31T16:30:26.533Z,16.55
2023-01-31T16:31:26.593Z,16.55
2023-01-31T16:32:26.570Z,16.57
2023-01-31T16:33:26.534Z,16.58
2023-01-31T16:34:26.522Z,16.58
2023-01-31T16:35:26.523Z,16.60
2023-01-31T16:36:26.497Z,16.57
2023-01-31T16:37:26.497Z,16.61
2023-01-31T16:38:26.512Z,16.60
2023-01-31T16:39:26.537Z,16.62
2023-01-31T16:40:26.500Z,16.61
2023-01-31T16:41:26.525Z,16.63
2023-01-31T16:42:26.492Z,16.60
2023-01-31T16:43:26.475Z,16.63
2023-01-31T16:44:26.476Z,16.66
2023-01-31T16:45:26.478Z,16.62
2023-01-31T16:46:26.469Z,16.65
2023-01-31T16:47:26.505Z,16.65
2023-01-31T16:51:26.437Z,16.66
2023-01-31T17:34:26.340Z,16.91
2023-01-31T17:35:26.292Z,16.93
2023-01-31T17:36:26.326Z,16.96
2023-01-31T17:37:31.603Z,16.96
2023-01-31T17:39:26.346Z,16.98
2023-01-31T17:40:26.300Z,17.01
2023-01-31T17:41:26.283Z,16.99
2023-01-31T17:42:26.273Z,17.03
2023-01-31T17:43:26.283Z,17.01
2023-01-31T17:44:26.282Z,17.03
2023-01-31T17:45:26.285Z,16.99
2023-01-31T17:46:26.335Z,16.99
2023-01-31T17:47:26.302Z,16.99
2023-01-31T17:48:27.177Z,17.01
2023-01-31T17:49:26.246Z,17.01
2023-01-31T17:50:26.250Z,17.04
2023-01-31T17:51:26.244Z,17.03
2023-01-31T17:52:26.211Z,17.01
2023-01-31T17:53:26.824Z,17.03
2023-01-31T17:54:26.250Z,16.99
2023-01-31T17:55:26.219Z,17.06
2023-01-31T17:56:26.197Z,17.11
2023-01-31T17:57:26.311Z,17.07
2023-01-31T17:58:26.162Z,17.12
2023-01-31T17:59:27.562Z,17.09
2023-01-31T18:00:26.240Z,17.12
2023-01-31T18:01:26.161Z,17.07
2023-01-31T18:02:26.240Z,17.10
2023-01-31T18:03:26.219Z,17.12
2023-01-31T18:04:26.144Z,17.11
2023-01-31T18:05:38.236Z,17.15
2023-01-31T18:06:27.147Z,17.12
2023-01-31T18:07:26.149Z,17.09
2023-01-31T18:08:26.144Z,17.09
2023-01-31T18:09:26.139Z,17.14
2023-01-31T18:10:26.161Z,17.15
2023-01-31T18:11:26.141Z,17.17
2023-01-31T18:12:26.164Z,17.11
2023-01-31T18:13:26.159Z,17.14
2023-01-31T18:14:26.118Z,17.19
2023-01-31T18:15:26.099Z,17.17
2023-01-31T18:16:26.178Z,17.12
2023-01-31T18:17:26.103Z,17.20
2023-01-31T18:18:26.093Z,17.20
2023-01-31T18:19:26.105Z,17.23
2023-01-31T18:20:26.105Z,17.22
2023-01-31T18:21:26.109Z,17.18
2023-01-31T18:22:26.092Z,17.18
2023-01-31T18:23:26.073Z,17.18
2023-01-31T18:24:26.092Z,17.25
2023-01-31T18:25:26.070Z,17.26
2023-01-31T18:26:26.076Z,17.26
2023-01-31T18:27:26.083Z,17.25
2023-01-31T18:28:26.063Z,17.28
2023-01-31T18:29:26.069Z,17.26
2023-01-31T18:30:26.115Z,17.25
2023-01-31T18:31:26.254Z,17.26
2023-01-31T18:32:26.037Z,17.25
2023-01-31T18:33:26.041Z,17.28
2023-01-31T18:34:26.019Z,17.32
2023-01-31T18:35:26.007Z,17.26
2023-01-31T18:36:26.005Z,17.26
2023-01-31T18:37:26.578Z,17.26
2023-01-31T18:38:25.973Z,17.33
2023-01-31T18:39:26.078Z,17.33
2023-01-31T18:40:25.971Z,17.31
2023-01-31T18:41:25.997Z,17.32
2023-01-31T18:42:25.945Z,17.34
2023-01-31T18:43:25.952Z,17.31
2023-01-31T18:44:25.955Z,17.31
2023-01-31T18:45:25.935Z,17.32
2023-01-31T18:46:25.953Z,17.36
2023-01-31T18:47:25.901Z,17.37
2023-01-31T18:48:25.929Z,17.37
2023-01-31T18:49:25.892Z,17.34
2023-01-31T18:50:25.890Z,17.32
2023-01-31T18:51:25.873Z,17.37
2023-01-31T18:52:25.870Z,17.36
2023-01-31T18:53:25.872Z,17.37
2023-01-31T18:54:25.893Z,17.37
2023-01-31T18:55:25.863Z,17.37
2023-01-31T18:56:25.884Z,17.37
2023-01-31T18:57:25.832Z,17.42
2023-01-31T18:58:25.847Z,17.36
2023-01-31T18:59:25.835Z,17.37
2023-01-31T19:00:25.955Z,17.41
2023-01-31T19:01:25.837Z,17.42
2023-01-31T19:02:25.929Z,17.41
2023-01-31T19:03:25.829Z,17.42
2023-01-31T19:04:25.782Z,17.41
2023-01-31T19:05:25.798Z,17.42
2023-01-31T19:06:25.785Z,17.44
2023-01-31T19:07:25.792Z,17.47
2023-01-31T19:08:25.800Z,17.44
2023-01-31T19:09:25.779Z,17.44
2023-01-31T19:10:25.799Z,17.45
2023-01-31T19:11:25.788Z,17.44
2023-01-31T19:12:25.752Z,17.42
2023-01-31T19:13:25.744Z,17.45
2023-01-31T19:14:25.764Z,17.44
2023-01-31T19:15:25.755Z,17.44
2023-01-31T19:16:25.822Z,17.45
2023-01-31T19:17:25.743Z,17.50
2023-01-31T19:18:25.757Z,17.52
2023-01-31T19:19:25.797Z,17.55
2023-01-31T19:20:25.752Z,17.50
2023-01-31T19:21:25.784Z,17.52
2023-01-31T19:22:25.732Z,17.55
2023-01-31T19:23:25.744Z,17.53
2023-01-31T19:24:25.728Z,17.56
2023-01-31T19:25:26.579Z,17.58
2023-01-31T19:26:26.548Z,17.56
2023-01-31T19:27:25.734Z,17.61
2023-01-31T19:28:25.745Z,17.56
2023-01-31T19:29:25.719Z,17.56
2023-01-31T19:30:25.748Z,17.56
2023-01-31T19:31:25.742Z,17.63
2023-01-31T19:32:25.747Z,17.61
2023-01-31T19:33:25.722Z,17.63
2023-01-31T19:34:25.762Z,17.61
2023-01-31T19:35:25.743Z,17.61
2023-01-31T19:36:25.773Z,17.64
2023-01-31T19:37:25.725Z,17.64
2023-01-31T19:38:25.733Z,17.68
2023-01-31T19:39:25.699Z,17.68
2023-01-31T19:40:25.689Z,17.69
2023-01-31T19:41:25.696Z,17.71
2023-01-31T19:42:25.705Z,17.69
2023-01-31T19:43:25.715Z,17.74
2023-01-31T19:44:25.678Z,17.69
2023-01-31T19:45:25.953Z,17.71
2023-01-31T19:46:25.692Z,17.67
2023-01-31T19:47:25.691Z,17.71
2023-01-31T19:48:25.691Z,17.71
2023-01-31T19:49:25.674Z,17.72
2023-01-31T19:50:25.669Z,17.68
2023-01-31T19:51:25.671Z,17.74
2023-01-31T19:52:25.650Z,17.71
2023-01-31T19:53:25.657Z,17.77
2023-01-31T19:54:27.956Z,17.74
2023-01-31T19:55:25.666Z,17.75
2023-01-31T19:56:25.694Z,17.79
2023-01-31T19:57:25.658Z,17.75
2023-01-31T19:58:25.653Z,17.77
2023-01-31T23:36:33.835Z,18.72
2023-01-31T23:37:33.911Z,18.66
2023-01-31T23:38:33.941Z,18.64
2023-01-31T23:39:33.999Z,18.66
2023-01-31T23:40:34.030Z,18.67
2023-01-31T23:41:34.083Z,18.74
2023-01-31T23:42:34.170Z,18.76
2023-01-31T23:43:34.195Z,18.67
2023-01-31T23:44:34.261Z,18.71
2023-01-31T23:45:34.348Z,18.71
2023-01-31T23:46:34.432Z,18.66
2023-01-31T23:47:34.471Z,18.67
2023-01-31T23:48:34.490Z,18.66
2023-01-31T23:49:34.536Z,18.66
2023-01-31T23:50:34.611Z,18.72
2023-01-31T23:51:35.638Z,18.69
2023-01-31T23:52:34.684Z,18.69
2023-01-31T23:53:34.679Z,18.71
2023-01-31T23:54:34.654Z,18.67
2023-01-31T23:55:34.663Z,18.75
2023-01-31T23:56:34.646Z,18.71
2023-01-31T23:57:34.730Z,18.69
2023-01-31T23:58:34.659Z,18.74
2023-01-31T23:59:34.704Z,18.72
